Time;durP1;ratioP1;P1;durP2;ratioP2;P2;SDS_P1;SDS_P2;PMS_P1;PMS_P2;Temp;Humidity;BMP_temperature;BMP_pressure;BME280_temperature;BME280_humidity;BME280_pressure;Samples;Min_cycle;Max_cycle;Signal;HPM_P1;HPM_P2
2022/01/11 00:01:04;;;;;;;35.78;19.67;;;0.10;99.90;;;;;;5138212;27;20047;-74
2022/01/11 00:03:30;;;;;;;40.45;20.90;;;0.20;99.90;;;;;;5156723;27;20077;-74
2022/01/11 00:06:05;;;;;;;40.03;20.27;;;0.10;99.90;;;;;;5137540;27;20042;-74
2022/01/11 00:08:33;;;;;;;35.38;19.35;;;0.10;99.90;;;;;;5156263;27;20078;-74
2022/01/11 00:11:04;;;;;;;40.65;21.65;;;0.10;99.90;;;;;;5137197;27;20042;-74
2022/01/11 00:13:35;;;;;;;39.55;20.35;;;0.20;99.90;;;;;;5137774;27;20508;-74
2022/01/11 00:16:02;;;;;;;33.25;18.05;;;0.10;99.90;;;;;;5137803;27;20054;-74
2022/01/11 00:18:28;;;;;;;32.47;19.70;;;0.10;99.90;;;;;;5136857;27;20099;-74
2022/01/11 00:20:55;;;;;;;40.75;21.23;;;0.10;99.90;;;;;;5138021;27;20081;-74
2022/01/11 00:25:52;;;;;;;38.58;19.15;;;0.10;99.90;;;;;;5136922;27;20042;-74
2022/01/11 00:28:20;;;;;;;32.97;18.98;;;0.00;99.90;;;;;;5137373;27;20502;-74
2022/01/11 00:30:48;;;;;;;33.45;20.00;;;0.00;99.90;;;;;;5137370;27;20058;-74
2022/01/11 00:33:23;;;;;;;42.25;21.48;;;0.10;99.90;;;;;;5136614;27;20390;-74
2022/01/11 00:35:59;;;;;;;38.33;19.88;;;0.30;99.90;;;;;;5137488;27;20053;-74
2022/01/11 00:38:35;;;;;;;31.95;18.85;;;0.10;99.90;;;;;;5137201;27;20046;-74
2022/01/11 00:41:05;;;;;;;33.95;18.70;;;0.20;99.90;;;;;;5136826;27;20506;-74
2022/01/11 00:43:33;;;;;;;31.38;18.30;;;0.10;99.90;;;;;;5137555;27;20475;-74
2022/01/11 00:45:59;;;;;;;41.35;20.40;;;0.10;99.90;;;;;;5136910;27;20059;-74
2022/01/11 00:48:26;;;;;;;34.78;18.20;;;0.10;99.90;;;;;;5136514;27;20398;-74
2022/01/11 00:50:53;;;;;;;34.30;18.02;;;0.10;99.90;;;;;;5137135;27;20049;-74
2022/01/11 00:53:19;;;;;;;35.38;19.15;;;0.10;99.90;;;;;;5118624;27;20047;-74
2022/01/11 00:55:47;;;;;;;37.15;19.58;;;0.10;99.90;;;;;;5136904;27;20043;-74
2022/01/11 00:58:14;;;;;;;38.72;18.30;;;0.10;99.90;;;;;;5137163;27;20061;-74
2022/01/11 01:00:40;;;;;;;36.83;18.80;;;0.10;99.90;;;;;;5135879;27;20046;-74
2022/01/11 01:03:06;;;;;;;36.80;18.45;;;0.10;99.90;;;;;;5137316;27;20043;-74
2022/01/11 01:05:32;;;;;;;35.13;19.90;;;0.10;99.90;;;;;;5137454;27;20039;-74
2022/01/11 01:07:59;;;;;;;32.85;18.67;;;0.10;99.90;;;;;;5136075;27;20043;-74
2022/01/11 01:10:26;;;;;;;32.30;19.20;;;0.10;99.90;;;;;;5155195;27;20086;-74
2022/01/11 01:13:05;;;;;;;36.70;18.90;;;0.10;99.90;;;;;;5136932;27;20556;-74
2022/01/11 01:15:31;;;;;;;34.80;19.50;;;0.10;99.90;;;;;;5135939;27;20046;-74
2022/01/11 01:18:00;;;;;;;40.83;18.55;;;0.10;99.90;;;;;;5136638;27;20049;-74
2022/01/11 01:20:26;;;;;;;30.13;18.25;;;0.10;99.90;;;;;;5154851;27;20038;-74
2022/01/11 01:22:52;;;;;;;41.45;19.20;;;0.00;99.90;;;;;;5135611;27;20054;-74
2022/01/11 01:25:20;;;;;;;37.35;18.55;;;0.00;99.90;;;;;;5155087;27;20039;-74
2022/01/11 01:27:47;;;;;;;47.25;19.98;;;0.20;99.90;;;;;;5136499;27;20056;-74
2022/01/11 01:30:13;;;;;;;41.78;19.42;;;0.00;99.90;;;;;;5135685;27;20535;-74
2022/01/11 01:32:39;;;;;;;40.08;18.92;;;0.00;99.90;;;;;;5136404;27;20051;-74
2022/01/11 01:35:05;;;;;;;41.70;19.23;;;0.00;99.90;;;;;;5136550;27;20046;-74
2022/01/11 01:37:31;;;;;;;38.40;18.52;;;0.00;99.90;;;;;;5118905;27;20046;-74
2022/01/11 01:39:57;;;;;;;41.60;20.20;;;0.00;99.90;;;;;;5119008;27;20478;-74
2022/01/11 01:42:27;;;;;;;41.40;19.48;;;0.00;99.90;;;;;;5136115;27;20049;-74
2022/01/11 01:44:53;;;;;;;41.17;19.73;;;0.30;99.90;;;;;;5140524;27;20470;-74
2022/01/11 01:47:19;;;;;;;40.53;20.80;;;0.50;99.90;;;;;;5140585;27;20046;-74
2022/01/11 01:49:45;;;;;;;42.10;21.20;;;0.00;99.90;;;;;;5139704;27;20055;-74
2022/01/11 01:52:14;;;;;;;40.67;20.10;;;0.00;99.90;;;;;;5140689;27;20054;-74
2022/01/11 01:54:40;;;;;;;43.28;20.88;;;0.00;99.90;;;;;;5139856;27;20043;-74
2022/01/11 01:57:06;;;;;;;51.90;22.23;;;0.00;99.90;;;;;;5139810;27;20058;-74
2022/01/11 01:59:32;;;;;;;47.05;21.90;;;0.00;99.90;;;;;;5140425;27;20038;-74
2022/01/11 02:01:58;;;;;;;44.45;22.45;;;0.10;99.90;;;;;;5159125;27;20051;-74
2022/01/11 02:04:24;;;;;;;51.92;22.85;;;0.10;99.90;;;;;;5139623;27;20053;-74
2022/01/11 02:06:50;;;;;;;58.28;23.33;;;0.10;99.90;;;;;;5140059;27;20126;-74
2022/01/11 02:09:16;;;;;;;54.25;23.08;;;0.10;99.90;;;;;;5140267;27;20088;-74
2022/01/11 02:11:43;;;;;;;62.22;23.65;;;0.10;99.90;;;;;;5139450;27;20041;-74
2022/01/11 02:14:09;;;;;;;51.97;23.63;;;0.10;99.90;;;;;;5140311;27;20103;-74
2022/01/11 02:16:35;;;;;;;54.08;23.85;;;0.10;99.90;;;;;;5140145;27;20069;-74
2022/01/11 02:19:01;;;;;;;51.55;22.85;;;0.10;99.90;;;;;;5139346;27;20077;-74
2022/01/11 02:21:27;;;;;;;48.95;23.85;;;0.40;99.90;;;;;;5140336;27;20397;-74
2022/01/11 02:23:53;;;;;;;56.10;23.48;;;0.20;99.90;;;;;;5139768;27;20043;-74
2022/01/11 02:26:20;;;;;;;49.28;22.58;;;0.20;99.90;;;;;;5139313;27;20037;-74
2022/01/11 02:28:46;;;;;;;52.95;24.13;;;0.20;99.90;;;;;;5139916;27;20042;-74
2022/01/11 02:31:14;;;;;;;64.50;24.95;;;0.20;99.90;;;;;;5123036;27;20045;-74
2022/01/11 02:33:43;;;;;;;53.35;23.88;;;0.20;99.90;;;;;;5122061;27;20050;-74
2022/01/11 02:36:18;;;;;;;60.42;23.92;;;0.20;99.90;;;;;;5140176;27;20438;-74
2022/01/11 02:38:43;;;;;;;59.05;25.00;;;0.20;99.90;;;;;;5138593;27;20046;-74
2022/01/11 02:41:09;;;;;;;55.00;23.98;;;0.30;99.90;;;;;;5139827;27;20045;-74
2022/01/11 02:43:39;;;;;;;56.47;23.65;;;0.30;99.90;;;;;;5158069;27;20054;-74
2022/01/11 02:46:05;;;;;;;60.60;25.42;;;0.30;99.90;;;;;;5135241;27;20118;-74
2022/01/11 02:48:30;;;;;;;63.70;25.80;;;1.30;99.90;;;;;;5135572;27;20135;-74
2022/01/11 02:50:56;;;;;;;52.40;24.15;;;0.30;99.90;;;;;;5136098;27;20047;-74
2022/01/11 02:53:22;;;;;;;54.58;24.73;;;0.80;99.90;;;;;;5134567;27;20114;-74
2022/01/11 02:55:48;;;;;;;62.28;27.00;;;0.30;99.90;;;;;;5136817;27;20050;-74
2022/01/11 02:58:14;;;;;;;61.28;23.60;;;0.30;99.90;;;;;;5135910;27;20459;-74
2022/01/11 03:00:41;;;;;;;56.60;24.17;;;0.40;99.90;;;;;;5134914;27;20120;-74
2022/01/11 03:03:14;;;;;;;59.60;26.17;;;0.30;99.90;;;;;;5135847;27;20055;-74
2022/01/11 03:05:48;;;;;;;62.15;25.55;;;0.30;99.90;;;;;;5136264;27;20065;-74
2022/01/11 03:08:16;;;;;;;52.88;23.90;;;1.00;99.90;;;;;;5135695;27;20100;-74
2022/01/11 03:10:42;;;;;;;64.60;26.00;;;0.40;99.90;;;;;;5135684;27;20050;-74
2022/01/11 03:13:09;;;;;;;68.25;25.42;;;0.40;99.90;;;;;;5135626;27;20046;-74
2022/01/11 03:15:37;;;;;;;63.17;25.48;;;0.40;99.90;;;;;;5134774;27;20051;-74
2022/01/11 03:18:04;;;;;;;70.07;25.75;;;1.20;99.90;;;;;;5136998;27;20394;-74
2022/01/11 03:20:32;;;;;;;70.90;27.90;;;0.40;99.90;;;;;;5135803;27;20167;-74
2022/01/11 03:22:59;;;;;;;66.40;24.40;;;0.40;99.90;;;;;;5134636;27;20042;-74
2022/01/11 03:25:25;;;;;;;59.92;24.05;;;0.60;99.90;;;;;;5135290;27;20402;-74
2022/01/11 03:27:51;;;;;;;63.15;26.63;;;0.40;99.90;;;;;;5134486;27;20172;-74
2022/01/11 03:30:17;;;;;;;61.30;25.10;;;0.40;99.90;;;;;;5136692;27;20086;-74
2022/01/11 03:32:43;;;;;;;59.65;24.27;;;0.40;99.90;;;;;;5136635;27;20066;-74
2022/01/11 03:35:10;;;;;;;61.70;26.42;;;0.40;99.90;;;;;;5135716;27;20938;-74
2022/01/11 03:37:36;;;;;;;64.47;27.45;;;0.40;99.90;;;;;;5135357;27;20082;-74
2022/01/11 03:40:05;;;;;;;65.65;26.55;;;0.40;99.90;;;;;;5136124;27;20055;-74
2022/01/11 03:42:31;;;;;;;67.57;26.65;;;0.40;99.90;;;;;;5134175;27;20050;-74
2022/01/11 03:44:57;;;;;;;63.72;26.30;;;0.40;99.90;;;;;;5120680;27;20047;-74
2022/01/11 03:47:23;;;;;;;63.80;25.60;;;1.20;99.90;;;;;;5138353;27;20046;-74
2022/01/11 03:49:49;;;;;;;65.43;27.58;;;0.50;99.90;;;;;;5137341;27;20047;-74
2022/01/11 03:52:16;;;;;;;74.13;26.80;;;1.10;99.90;;;;;;5138303;27;20473;-74
2022/01/11 03:55:02;;;;;;;64.38;26.67;;;0.50;99.90;;;;;;5138099;27;20078;-74
2022/01/11 03:57:30;;;;;;;66.15;25.35;;;0.50;99.90;;;;;;5137621;27;20047;-74
2022/01/11 03:59:57;;;;;;;64.03;26.48;;;0.40;99.90;;;;;;5156754;27;20632;-74
2022/01/11 04:02:23;;;;;;;67.10;26.75;;;1.20;99.90;;;;;;5120913;27;20039;-74
2022/01/11 04:04:52;;;;;;;68.82;27.70;;;0.40;99.90;;;;;;5136703;27;20039;-74
2022/01/11 04:07:23;;;;;;;77.95;28.10;;;0.50;99.90;;;;;;5137720;27;20045;-74
2022/01/11 04:09:51;;;;;;;70.68;28.63;;;0.50;99.90;;;;;;5156195;27;20037;-74
2022/01/11 04:12:17;;;;;;;65.50;27.88;;;0.60;99.90;;;;;;5155604;27;20050;-74
2022/01/11 04:14:43;;;;;;;75.43;29.50;;;0.50;99.90;;;;;;5137944;27;20046;-74
2022/01/11 04:17:09;;;;;;;75.03;28.38;;;0.50;99.90;;;;;;5137277;27;20046;-74
2022/01/11 04:19:35;;;;;;;79.80;31.90;;;0.50;99.90;;;;;;5120927;27;20046;-74
2022/01/11 04:22:01;;;;;;;66.38;28.08;;;0.50;99.90;;;;;;5137719;27;20051;-74
2022/01/11 04:24:26;;;;;;;66.45;29.13;;;0.50;99.90;;;;;;5136979;27;20043;-74
2022/01/11 04:26:52;;;;;;;70.53;30.05;;;0.50;99.90;;;;;;5120313;27;20072;-74
2022/01/11 04:29:18;;;;;;;85.55;28.30;;;0.50;99.90;;;;;;5120702;27;20501;-74
2022/01/11 04:31:44;;;;;;;67.60;26.80;;;1.00;99.90;;;;;;5136702;27;20039;-74
2022/01/11 04:34:10;;;;;;;67.95;27.77;;;0.50;99.90;;;;;;5137735;27;20102;-74
2022/01/11 04:36:36;;;;;;;77.43;28.88;;;0.50;99.90;;;;;;5137520;27;20517;-74
2022/01/11 04:39:07;;;;;;;71.38;28.67;;;0.50;99.90;;;;;;5136577;27;20041;-74
2022/01/11 04:41:33;;;;;;;69.85;29.98;;;1.20;99.90;;;;;;5120329;27;20055;-73
2022/01/11 04:43:59;;;;;;;63.13;26.83;;;0.50;99.90;;;;;;5156013;27;20113;-74
2022/01/11 04:46:26;;;;;;;84.90;28.40;;;0.50;99.90;;;;;;5136260;27;20055;-74
2022/01/11 04:48:53;;;;;;;70.35;28.65;;;1.20;99.90;;;;;;5137138;27;20050;-74
2022/01/11 04:51:20;;;;;;;64.55;28.52;;;0.50;99.90;;;;;;5137328;27;20046;-74
2022/01/11 04:53:49;;;;;;;65.28;26.92;;;0.50;99.90;;;;;;5136067;27;20046;-74
2022/01/11 04:56:15;;;;;;;64.93;26.13;;;0.50;99.90;;;;;;5137031;27;20090;-74
2022/01/11 04:58:41;;;;;;;70.15;27.35;;;1.10;99.90;;;;;;5137183;27;20394;-74
2022/01/11 05:01:07;;;;;;;57.97;25.42;;;0.70;99.90;;;;;;5136442;27;20077;-74
2022/01/11 05:03:33;;;;;;;63.00;26.60;;;0.50;99.90;;;;;;5119898;27;20359;-74
2022/01/11 05:05:59;;;;;;;74.32;26.73;;;0.50;99.90;;;;;;5136780;27;20461;-74
2022/01/11 05:08:24;;;;;;;62.60;25.88;;;0.50;99.90;;;;;;5154461;27;20424;-74
2022/01/11 05:10:50;;;;;;;71.82;26.38;;;1.10;99.90;;;;;;5155257;27;20060;-74
2022/01/11 05:13:18;;;;;;;66.38;25.27;;;0.50;99.90;;;;;;5136298;27;20111;-74
2022/01/11 05:15:45;;;;;;;62.97;25.50;;;0.50;99.90;;;;;;5119784;27;20045;-74
2022/01/11 05:18:11;;;;;;;70.07;26.88;;;0.50;99.90;;;;;;5135852;27;20051;-74
2022/01/11 05:20:38;;;;;;;65.22;26.33;;;0.90;99.90;;;;;;5154490;27;20406;-74
2022/01/11 05:23:04;;;;;;;63.58;24.98;;;0.50;99.90;;;;;;5136639;27;20039;-74
2022/01/11 05:25:31;;;;;;;60.30;24.23;;;0.50;99.90;;;;;;5136647;27;20061;-74
2022/01/11 05:27:59;;;;;;;55.30;24.50;;;0.50;99.90;;;;;;5135656;27;20089;-74
2022/01/11 05:30:25;;;;;;;57.17;24.95;;;0.50;99.90;;;;;;5136653;27;20114;-74
2022/01/11 05:32:51;;;;;;;56.22;24.15;;;0.50;99.90;;;;;;5155198;27;20417;-74
2022/01/11 05:35:19;;;;;;;62.47;23.48;;;0.50;99.90;;;;;;5135674;27;20039;-74
2022/01/11 05:37:45;;;;;;;58.38;22.90;;;0.50;99.90;;;;;;5136712;27;20091;-74
2022/01/11 05:40:12;;;;;;;54.15;22.60;;;1.00;99.90;;;;;;5136353;27;20027;-74
2022/01/11 05:42:39;;;;;;;50.50;22.63;;;0.50;99.90;;;;;;5135684;27;20143;-74
2022/01/11 05:45:07;;;;;;;51.35;22.85;;;0.50;99.90;;;;;;5136231;27;20047;-74
2022/01/11 05:47:33;;;;;;;55.40;22.90;;;0.50;99.90;;;;;;5136650;27;20383;-74
2022/01/11 05:50:00;;;;;;;56.35;22.02;;;0.50;99.90;;;;;;5135532;27;20489;-74
2022/01/11 05:52:26;;;;;;;53.42;22.88;;;0.50;99.90;;;;;;5136488;27;20157;-74
2022/01/11 05:54:51;;;;;;;55.35;24.33;;;0.50;99.90;;;;;;5136044;27;20042;-74
2022/01/11 05:57:17;;;;;;;53.17;23.60;;;0.50;99.90;;;;;;5135584;27;20038;-74
2022/01/11 05:59:43;;;;;;;58.10;22.10;;;0.50;99.90;;;;;;5136424;27;20049;-74
2022/01/11 06:02:09;;;;;;;56.33;22.52;;;0.50;99.90;;;;;;5136375;27;20038;-74
2022/01/11 06:04:34;;;;;;;54.60;21.65;;;0.60;99.90;;;;;;5118320;27;20122;-74
2022/01/11 06:07:03;;;;;;;50.90;21.80;;;0.50;99.90;;;;;;5135955;27;20133;-74
2022/01/11 06:09:29;;;;;;;51.85;22.20;;;0.50;99.90;;;;;;5135701;27;20102;-74
2022/01/11 06:11:58;;;;;;;44.95;20.63;;;0.50;99.90;;;;;;5118421;27;20125;-74
2022/01/11 06:14:26;;;;;;;49.72;21.33;;;0.50;99.90;;;;;;5136325;27;20034;-74
2022/01/11 06:16:52;;;;;;;47.50;20.38;;;0.40;99.90;;;;;;5135383;27;20050;-74
2022/01/11 06:19:18;;;;;;;48.33;20.00;;;0.90;99.90;;;;;;5136577;27;20095;-74
2022/01/11 06:21:44;;;;;;;50.38;21.25;;;0.40;99.90;;;;;;5119410;27;20039;-74
2022/01/11 06:24:10;;;;;;;41.67;20.08;;;0.40;99.90;;;;;;5134915;27;20513;-76
2022/01/11 06:26:36;;;;;;;45.88;20.02;;;0.40;99.90;;;;;;5135492;27;20038;-75
2022/01/11 06:29:02;;;;;;;43.20;19.40;;;0.40;99.90;;;;;;5137550;27;20038;-75
2022/01/11 06:31:29;;;;;;;51.45;19.50;;;0.40;99.90;;;;;;5139286;27;20051;-75
2022/01/11 06:33:55;;;;;;;43.60;19.20;;;0.40;99.90;;;;;;5158041;27;20403;-75
2022/01/11 06:36:21;;;;;;;44.17;18.90;;;0.30;99.90;;;;;;5139710;27;20047;-75
2022/01/11 06:38:47;;;;;;;36.72;18.85;;;0.40;99.90;;;;;;5138919;27;20045;-75
2022/01/11 06:41:13;;;;;;;43.10;18.50;;;0.50;99.90;;;;;;5139734;27;20043;-75
2022/01/11 06:43:40;;;;;;;44.20;19.38;;;0.30;99.90;;;;;;5139476;27;20134;-75
2022/01/11 06:46:06;;;;;;;43.50;19.38;;;0.30;99.90;;;;;;5157046;27;20133;-75
2022/01/11 06:48:33;;;;;;;40.65;18.52;;;0.30;99.90;;;;;;5139359;27;20047;-75
2022/01/11 06:50:59;;;;;;;40.65;19.13;;;0.30;99.90;;;;;;5139605;27;20054;-75
2022/01/11 06:53:28;;;;;;;40.60;18.17;;;0.30;99.90;;;;;;5138634;27;20038;-75
2022/01/11 06:55:59;;;;;;;39.42;19.10;;;0.20;99.90;;;;;;5139656;27;20038;-75
2022/01/11 06:58:30;;;;;;;44.53;18.33;;;0.20;99.90;;;;;;5139405;27;20060;-75
2022/01/11 07:00:57;;;;;;;42.33;18.77;;;0.20;99.90;;;;;;5157230;27;20138;-75
2022/01/11 07:03:23;;;;;;;34.13;16.65;;;0.20;99.90;;;;;;5157379;27;20051;-75
2022/01/11 07:05:48;;;;;;;35.67;18.65;;;0.20;99.90;;;;;;5157620;27;20038;-76
2022/01/11 07:08:14;;;;;;;35.03;17.38;;;0.20;99.90;;;;;;5138722;27;20070;-75
2022/01/11 07:10:40;;;;;;;44.78;20.13;;;0.20;99.90;;;;;;5157813;27;20034;-75
2022/01/11 07:13:05;;;;;;;38.30;17.13;;;0.80;99.90;;;;;;5156830;27;20126;-75
2022/01/11 07:15:31;;;;;;;34.22;16.80;;;0.20;99.90;;;;;;5139141;27;20371;-75
2022/01/11 07:17:57;;;;;;;34.55;17.20;;;0.20;99.90;;;;;;5139082;27;20046;-75
2022/01/11 07:20:23;;;;;;;35.22;17.50;;;0.20;99.90;;;;;;5138046;27;20043;-75
2022/01/11 07:22:49;;;;;;;31.85;17.38;;;0.10;99.90;;;;;;5138902;27;20046;-74
2022/01/11 07:25:15;;;;;;;35.90;16.65;;;0.10;99.90;;;;;;5138377;27;20046;-75
2022/01/11 07:27:41;;;;;;;35.22;16.42;;;0.10;99.90;;;;;;5120861;27;20039;-74
2022/01/11 07:30:08;;;;;;;44.15;17.98;;;0.10;99.90;;;;;;5157490;27;20038;-74
2022/01/11 07:32:35;;;;;;;41.00;17.35;;;0.10;99.90;;;;;;5157324;27;20134;-74
2022/01/11 07:35:03;;;;;;;31.15;16.65;;;0.70;99.90;;;;;;5156026;27;20100;-74
2022/01/11 07:37:29;;;;;;;31.27;16.42;;;0.20;99.90;;;;;;5137549;27;20092;-75
2022/01/11 07:39:55;;;;;;;35.00;16.75;;;0.00;99.90;;;;;;5137015;27;20038;-75
2022/01/11 07:42:20;;;;;;;36.42;17.65;;;0.00;99.90;;;;;;5155763;27;20035;-75
2022/01/11 07:44:50;;;;;;;34.33;16.70;;;0.00;99.90;;;;;;5138284;27;20046;-75
2022/01/11 07:47:20;;;;;;;36.15;18.17;;;0.00;99.90;;;;;;5138224;27;20059;-75
2022/01/11 07:49:49;;;;;;;39.38;17.02;;;0.00;99.90;;;;;;5137602;27;20047;-75
2022/01/11 07:52:16;;;;;;;30.75;15.90;;;0.00;99.90;;;;;;5138247;27;20046;-75
2022/01/11 07:54:42;;;;;;;40.92;18.52;;;0.00;99.90;;;;;;5137368;27;20047;-75
2022/01/11 07:57:08;;;;;;;30.83;16.77;;;0.00;99.90;;;;;;5137561;27;20042;-75
2022/01/11 07:59:34;;;;;;;32.45;16.13;;;0.00;99.90;;;;;;5138274;27;20049;-75
2022/01/11 08:01:59;;;;;;;37.15;17.52;;;0.60;99.90;;;;;;5138234;27;20047;-75
2022/01/11 08:04:30;;;;;;;38.05;16.70;;;0.10;99.90;;;;;;5155850;27;20039;-75
2022/01/11 08:06:57;;;;;;;34.88;17.42;;;0.00;99.90;;;;;;5137864;27;20050;-75
2022/01/11 08:09:22;;;;;;;31.50;17.73;;;0.00;99.90;;;;;;5136998;27;20120;-75
2022/01/11 08:11:50;;;;;;;34.00;17.25;;;0.00;99.90;;;;;;5156307;27;20047;-75
2022/01/11 08:14:16;;;;;;;30.73;16.10;;;0.60;99.90;;;;;;5137305;27;20523;-75
2022/01/11 08:16:42;;;;;;;33.85;17.05;;;-0.10;99.90;;;;;;5136564;27;20050;-75
2022/01/11 08:19:07;;;;;;;32.83;17.40;;;0.00;99.90;;;;;;5156246;27;20035;-75
2022/01/11 08:21:33;;;;;;;33.50;17.35;;;0.00;99.90;;;;;;5156284;27;20402;-75
2022/01/11 08:23:59;;;;;;;32.67;17.17;;;0.00;99.90;;;;;;5136713;27;20050;-75
2022/01/11 08:26:25;;;;;;;37.08;17.63;;;0.00;99.90;;;;;;5137017;27;20125;-75
2022/01/11 08:28:50;;;;;;;34.42;17.85;;;0.20;99.90;;;;;;5137260;27;20050;-75
2022/01/11 08:31:16;;;;;;;32.72;16.73;;;0.30;99.90;;;;;;5136475;27;20540;-75
2022/01/11 08:33:42;;;;;;;35.35;16.75;;;0.00;99.90;;;;;;5137358;27;20068;-75
2022/01/11 08:36:08;;;;;;;34.05;17.38;;;0.00;99.90;;;;;;5137234;27;20042;-75
2022/01/11 08:38:35;;;;;;;35.65;17.27;;;0.40;99.90;;;;;;5119045;27;20095;-75
2022/01/11 08:41:01;;;;;;;34.40;17.52;;;0.00;99.90;;;;;;5137267;27;20118;-74
2022/01/11 08:43:30;;;;;;;36.97;17.60;;;0.40;99.90;;;;;;5137003;27;20111;-75
2022/01/11 08:45:56;;;;;;;40.22;19.00;;;0.20;99.90;;;;;;5135929;27;20544;-75
2022/01/11 08:48:22;;;;;;;37.50;17.65;;;0.00;99.90;;;;;;5119623;27;20066;-75
2022/01/11 08:50:52;;;;;;;42.85;18.98;;;0.00;99.90;;;;;;5137165;27;20042;-75
2022/01/11 08:53:20;;;;;;;32.30;17.67;;;0.00;99.90;;;;;;5135722;27;20053;-75
2022/01/11 08:55:46;;;;;;;42.80;17.55;;;0.20;99.90;;;;;;5137291;27;20114;-75
2022/01/11 08:58:12;;;;;;;39.53;18.52;;;0.00;99.90;;;;;;5136915;27;20051;-75
2022/01/11 09:00:39;;;;;;;38.22;17.30;;;0.00;99.90;;;;;;5136040;27;20070;-75
2022/01/11 09:03:05;;;;;;;36.65;18.38;;;0.00;99.90;;;;;;5137031;27;20393;-75
2022/01/11 09:05:30;;;;;;;34.42;17.92;;;0.00;99.90;;;;;;5136058;27;20037;-75
2022/01/11 09:07:56;;;;;;;37.70;18.92;;;0.10;99.90;;;;;;5136288;27;20047;-75
2022/01/11 09:10:22;;;;;;;37.25;17.88;;;0.10;99.90;;;;;;5154353;27;20039;-75
2022/01/11 09:12:48;;;;;;;42.38;19.00;;;0.80;99.90;;;;;;5135162;27;20512;-75
2022/01/11 09:15:14;;;;;;;38.13;18.73;;;0.10;99.90;;;;;;5136840;27;20050;-75
2022/01/11 09:17:41;;;;;;;36.50;17.55;;;0.10;99.90;;;;;;5155137;27;20534;-75
2022/01/11 09:20:09;;;;;;;39.67;18.73;;;0.10;99.90;;;;;;5135712;27;20459;-75
2022/01/11 09:22:35;;;;;;;36.38;19.02;;;0.10;99.90;;;;;;5136619;27;20047;-75
2022/01/11 09:25:01;;;;;;;40.03;20.15;;;0.90;99.90;;;;;;5115454;27;20104;-75
2022/01/11 09:27:27;;;;;;;45.50;19.52;;;0.20;99.90;;;;;;5133601;27;20047;-75
2022/01/11 09:29:53;;;;;;;36.17;19.02;;;0.20;99.90;;;;;;5116255;28;20039;-75
2022/01/11 09:32:19;;;;;;;38.50;19.02;;;0.70;99.90;;;;;;5134597;28;20047;-75
2022/01/11 09:34:44;;;;;;;40.42;19.52;;;0.70;99.90;;;;;;5115102;28;20069;-75
2022/01/11 09:37:11;;;;;;;43.28;21.35;;;0.20;99.90;;;;;;5115890;28;20039;-75
2022/01/11 09:39:38;;;;;;;46.22;20.60;;;0.30;99.90;;;;;;5146901;27;20051;-75
2022/01/11 09:42:06;;;;;;;42.95;20.65;;;0.30;99.90;;;;;;5134654;27;20062;-75
2022/01/11 09:44:34;;;;;;;48.30;22.55;;;0.30;99.90;;;;;;5136331;27;20046;-75
2022/01/11 09:47:00;;;;;;;44.35;22.00;;;0.30;99.90;;;;;;5135937;27;20050;-75
2022/01/11 09:49:26;;;;;;;47.30;22.67;;;1.10;99.90;;;;;;5135367;27;20097;-75
2022/01/11 09:51:52;;;;;;;53.88;24.65;;;0.40;99.90;;;;;;5119324;27;20081;-75
2022/01/11 09:54:19;;;;;;;45.95;23.52;;;0.40;99.90;;;;;;5119250;27;20366;-76
2022/01/11 09:56:46;;;;;;;48.88;22.92;;;1.10;99.90;;;;;;5135465;27;20099;-75
2022/01/11 09:59:12;;;;;;;45.90;22.27;;;0.40;99.90;;;;;;5136312;27;20080;-75
2022/01/11 10:01:38;;;;;;;42.15;22.38;;;0.50;99.90;;;;;;5136060;27;20043;-75
2022/01/11 10:04:06;;;;;;;53.00;23.13;;;0.50;99.90;;;;;;5137123;27;20042;-75
2022/01/11 10:06:34;;;;;;;49.83;22.92;;;0.60;99.90;;;;;;5123375;27;20549;-76
2022/01/11 10:09:16;;;;;;;44.15;23.00;;;0.60;99.90;;;;;;5135672;27;20047;-75
2022/01/11 10:11:49;;;;;;;42.22;21.83;;;0.70;99.90;;;;;;5136932;27;20101;-76
2022/01/11 10:14:31;;;;;;;46.42;23.30;;;0.70;99.90;;;;;;5137873;27;20046;-76
2022/01/11 10:17:27;;;;;;;43.65;23.20;;;0.70;99.90;;;;;;5135664;27;20051;-76
2022/01/11 10:20:03;;;;;;;46.20;23.60;;;0.70;99.90;;;;;;5138092;27;20043;-76
2022/01/11 10:22:31;;;;;;;50.75;24.33;;;0.70;99.90;;;;;;5137778;27;20410;-76
2022/01/11 10:24:59;;;;;;;43.92;23.60;;;0.70;99.90;;;;;;5134458;27;20116;-76
2022/01/11 10:27:28;;;;;;;45.45;21.90;;;0.80;99.90;;;;;;5158208;27;20087;-76
2022/01/11 10:29:57;;;;;;;44.33;22.67;;;0.80;99.90;;;;;;5157759;27;20070;-76
2022/01/11 10:32:36;;;;;;;43.75;22.48;;;0.90;99.90;;;;;;5139750;27;20042;-76
2022/01/11 10:35:05;;;;;;;44.08;23.83;;;0.80;99.90;;;;;;5139860;27;20034;-75
2022/01/11 10:37:38;;;;;;;45.35;23.52;;;0.80;99.90;;;;;;5157512;27;20030;-76
2022/01/11 10:40:09;;;;;;;42.17;22.83;;;0.90;99.90;;;;;;5139459;27;20500;-76
2022/01/11 10:42:41;;;;;;;47.63;24.85;;;0.90;99.90;;;;;;5139629;27;20038;-75
2022/01/11 10:45:12;;;;;;;45.90;24.50;;;1.00;99.90;;;;;;5135212;27;20439;-75
2022/01/11 10:47:41;;;;;;;42.75;22.67;;;1.10;99.90;;;;;;5137133;27;20047;-75
2022/01/11 10:50:12;;;;;;;44.95;22.73;;;1.10;99.90;;;;;;5135907;27;20131;-75
2022/01/11 10:52:39;;;;;;;44.83;23.60;;;1.20;99.90;;;;;;5136397;27;20533;-75
2022/01/11 10:55:08;;;;;;;40.70;22.77;;;1.30;99.90;;;;;;5136717;27;20043;-75
2022/01/11 10:57:37;;;;;;;39.85;22.15;;;1.30;99.90;;;;;;5137059;27;20086;-74
2022/01/11 11:00:17;;;;;;;34.17;20.92;;;1.40;99.90;;;;;;5136122;27;20043;-75
2022/01/11 11:02:46;;;;;;;37.95;21.80;;;1.50;99.90;;;;;;5135705;27;20047;-75
2022/01/11 11:05:16;;;;;;;36.63;20.00;;;1.50;99.90;;;;;;5136005;27;20043;-75
2022/01/11 11:07:43;;;;;;;35.15;19.98;;;1.60;99.90;;;;;;5137128;27;20050;-75
2022/01/11 11:10:09;;;;;;;34.60;19.45;;;1.70;99.90;;;;;;5135582;27;20406;-75
2022/01/11 11:12:35;;;;;;;30.00;20.63;;;1.70;99.90;;;;;;5136159;27;20100;-75
2022/01/11 11:15:03;;;;;;;32.55;20.13;;;1.70;99.90;;;;;;5135460;27;20051;-75
2022/01/11 11:17:29;;;;;;;33.42;20.50;;;1.70;99.90;;;;;;5136718;27;20039;-75
2022/01/11 11:20:02;;;;;;;32.95;19.80;;;1.70;99.90;;;;;;5136178;27;20031;-75
2022/01/11 11:22:29;;;;;;;37.33;20.40;;;1.80;99.90;;;;;;5136523;27;20083;-75
2022/01/11 11:24:56;;;;;;;31.42;19.38;;;1.80;99.90;;;;;;5134946;27;20043;-75
2022/01/11 11:27:24;;;;;;;34.75;20.98;;;1.80;99.90;;;;;;5133939;27;20047;-75
2022/01/11 11:29:51;;;;;;;31.15;19.73;;;1.90;99.90;;;;;;5135123;27;20044;-74
2022/01/11 11:32:19;;;;;;;37.63;20.10;;;1.90;99.90;;;;;;5135198;27;20079;-75
2022/01/11 11:34:49;;;;;;;33.92;20.40;;;2.00;99.90;;;;;;5134610;27;20386;-74
2022/01/11 11:37:35;;;;;;;32.45;19.85;;;2.00;99.90;;;;;;5136503;27;20039;-73
2022/01/11 11:40:09;;;;;;;30.77;18.20;;;2.10;99.90;;;;;;5135078;27;20058;-73
2022/01/11 11:42:37;;;;;;;34.88;20.25;;;2.20;99.90;;;;;;5136246;27;20136;-73
2022/01/11 11:45:18;;;;;;;30.10;19.33;;;2.20;99.90;;;;;;5139740;27;20050;-74
2022/01/11 11:47:45;;;;;;;28.58;19.15;;;2.20;99.90;;;;;;5137404;27;20516;-75
2022/01/11 11:50:22;;;;;;;29.25;19.02;;;2.30;99.90;;;;;;5138081;27;20485;-75
2022/01/11 11:52:51;;;;;;;33.00;20.02;;;2.30;99.90;;;;;;5156653;27;20046;-75
2022/01/11 11:55:27;;;;;;;33.90;19.40;;;2.40;99.90;;;;;;5137215;27;20117;-75
2022/01/11 11:58:06;;;;;;;34.30;20.60;;;2.40;99.90;;;;;;5156661;27;20046;-76
2022/01/11 12:00:35;;;;;;;33.95;19.33;;;2.50;99.90;;;;;;5148818;27;20069;-76
2022/01/11 12:03:23;;;;;;;31.05;19.92;;;2.50;99.90;;;;;;5155637;27;20092;-76
2022/01/11 12:05:49;;;;;;;31.02;17.92;;;2.60;99.90;;;;;;5137969;27;20051;-76
2022/01/11 12:08:34;;;;;;;31.33;18.98;;;2.70;99.90;;;;;;5155625;27;20039;-76
2022/01/11 12:11:03;;;;;;;29.33;18.00;;;2.70;99.90;;;;;;5135765;27;20045;-75
2022/01/11 12:13:39;;;;;;;31.88;17.98;;;2.70;99.90;;;;;;5135696;27;20051;-76
2022/01/11 12:16:23;;;;;;;30.10;18.58;;;2.80;99.90;;;;;;5134728;27;20043;-76
2022/01/11 12:18:53;;;;;;;28.48;17.20;;;2.80;99.90;;;;;;5127369;27;20129;-76
2022/01/11 12:21:20;;;;;;;31.15;18.65;;;3.50;99.90;;;;;;5137416;27;20042;-75
2022/01/11 12:23:48;;;;;;;23.77;15.43;;;2.80;99.90;;;;;;5136473;27;20096;-76
2022/01/11 12:26:16;;;;;;;25.35;15.57;;;3.00;99.90;;;;;;5136889;27;20047;-76
2022/01/11 12:29:07;;;;;;;24.33;15.85;;;2.90;99.90;;;;;;5156106;27;20046;-76
2022/01/11 12:31:45;;;;;;;23.52;14.98;;;2.90;99.90;;;;;;5151867;27;20043;-76
2022/01/11 12:34:13;;;;;;;22.60;14.13;;;3.00;99.90;;;;;;5120466;27;20054;-75
2022/01/11 12:36:57;;;;;;;22.27;13.95;;;3.00;99.90;;;;;;5115905;27;20119;-75
2022/01/11 12:39:25;;;;;;;24.98;13.95;;;3.00;99.90;;;;;;5148633;27;20106;-76
2022/01/11 12:41:52;;;;;;;21.83;12.80;;;3.00;99.90;;;;;;5137206;27;20046;-75